Ibiza, Spain

7:30 AM CEST on July 31, 2014 (GMT +0200)
Ibiza (LEIB) Elev 56 ft | 38.88 °N, 1.38 °E | Change Station

Current weather conditions updated 1 hour ago

Clear
Clear
70 °F
Feels Like 70 °F
N
0
Wind Variable Wind from North

Today is forecast to be nearly the same temperature as yesterday.

Today
High -- | Low -- °F
--% Chance of Precip.
Yesterday
High -- | Low -- °F
Precip. -- in
6:54 AM 9:06 PM
Waxing Crescent, 16% visible
Pressure 29.95 in
Visibility -9999.0 miles
Clouds
Dew Point 66 °F
Humidity 88%
Rainfall 0.00 in
Snow Depth Not available.
UV Not available.
Pollen Not available.
Air Quality Not available.
Flu Activity Not available.
METAR LEIB 310430Z 00000KT CAVOK 21/19 Q1014 NOSIG

More Conditions Fewer Conditions

Pressure 29.95 in
Visibility -9999.0 miles
Clouds
Dew Point 66 °F
Humidity 88%
Rainfall 0.00 in
Snow Depth Not available.
UV Not available.
Pollen Not available.
Air Quality Not available.
Flu Activity Not available.
METAR LEIB 310430Z 00000KT CAVOK 21/19 Q1014 NOSIG

More Conditions Fewer Conditions

10-Day Weather Forecast

Almanac

Astronomy

Jul. 31, 2014 Rise Set
Actual Time 6:54 AM CEST 9:06 PM CEST
Civil Twilight 6:24 AM CEST 9:36 PM CEST
Nautical Twilight 5:48 AM CEST 10:12 PM CEST
Astronomical Twilight 5:08 AM CEST 10:52 PM CEST
Moon 11:04 AM CEST 11:14 PM CEST
Length of Visible Light 15h 11m
Length of Day
14h 12m
Tomorrow will be 1m 53s shorter.
Waxing Crescent, 16% of the Moon is Illuminated
Today
Waxing Crescent
Aug 3
First Quarter
Aug 10
Full
Aug 17
Last Quarter
Aug 25
New

Yesterday's Extremes

Country Highs Country Lows

Community

WunderPhotos

Upload Photos

1,739,248 photos uploaded!

Nearby

Snow Depth

Not available.

Earthquake Activity

City Distance Mag. Time & Date
No recent earthquake activity has been reported nearby.
Minimum magnitude displayed is 2.5.

Coastal Water Temperatures

Place Temperature
No Stations Reporting

Nearby Weather Stations

Station Location Temp. Heat Index Dew Point Humidity Wind Precip. Elev Updated Type
Barrio Can Escandell, Eivissa 72.0 °F 71 °F 68 °F 86% NW  at  0.0 mph 0.00 in / hr 98 ft 7:30 AM CEST Normal
Montecristo, Ibiza 67.1 °F - 64 °F 88% West  at  0.0 mph 0.00 in / hr 82 ft 7:30 AM CEST Normal
Cala De Bou, Sant Josep De Sa Talaia 70.2 °F - 67 °F 89% SE  at  0.0 mph 0.00 in / hr 12 ft 7:30 AM CEST Normal
Sant Mateu d'Albarca, Eivissa 61.6 °F - 59 °F 92% North  at  0.0 mph 0.00 in / hr 581 ft 7:23 AM CEST Normal
Sant Miquel de Balansat, Sant Miquel De Balasant 66.9 °F - 64 °F 91% North  at  0.0 mph 0.00 in / hr 443 ft 7:30 AM CEST Normal

Show More Stations Show Fewer Stations